Time;durP1;ratioP1;P1;durP2;ratioP2;P2;SDS_P1;SDS_P2;PMS_P1;PMS_P2;Temp;Humidity;BMP_temperature;BMP_pressure;BME280_temperature;BME280_humidity;BME280_pressure;Samples;Min_cycle;Max_cycle;Signal;HPM_P1;HPM_P2
2024/02/01 00:01:16;;;;;;;64.18;46.30;;;3.10;99.90;;;;;;5056793;28;20024;-51
2024/02/01 00:03:42;;;;;;;45.30;32.45;;;3.00;99.90;;;;;;5046749;28;20556;-52
2024/02/01 00:06:08;;;;;;;42.58;29.92;;;2.50;99.90;;;;;;5045789;28;20052;-49
2024/02/01 00:08:34;;;;;;;40.88;26.65;;;;;;;;;;5038418;28;20055;-52
2024/02/01 00:11:00;;;;;;;43.55;30.38;;;1.50;99.90;;;;;;5046377;28;20025;-50
2024/02/01 00:13:25;;;;;;;53.03;39.95;;;1.50;99.90;;;;;;5041201;28;20041;-49
2024/02/01 00:15:51;;;;;;;45.92;33.40;;;1.70;99.90;;;;;;5047059;28;20029;-52
2024/02/01 00:18:17;;;;;;;46.03;33.00;;;;;;;;;;5060414;28;20175;-53
2024/02/01 00:20:43;;;;;;;42.53;30.65;;;;;;;;;;5046047;28;20457;-51
2024/02/01 00:23:09;;;;;;;47.35;34.00;;;3.10;99.90;;;;;;5039605;28;20033;-52
2024/02/01 00:25:35;;;;;;;61.53;38.78;;;3.00;99.90;;;;;;5050290;28;20048;-52
2024/02/01 00:28:01;;;;;;;79.10;46.78;;;3.00;99.90;;;;;;5015201;28;20040;-49
2024/02/01 00:30:27;;;;;;;96.82;53.35;;;2.70;99.90;;;;;;5041356;28;20405;-51
2024/02/01 00:32:53;;;;;;;98.47;51.53;;;3.00;99.90;;;;;;5043778;28;20037;-52
2024/02/01 00:35:19;;;;;;;78.13;46.80;;;3.00;99.90;;;;;;5036810;28;20048;-52
2024/02/01 00:37:45;;;;;;;91.88;55.90;;;3.10;99.90;;;;;;5041248;28;20034;-52
2024/02/01 00:40:11;;;;;;;80.07;46.38;;;2.90;99.90;;;;;;5040464;28;20029;-51
2024/02/01 00:42:36;;;;;;;67.63;41.75;;;2.40;99.90;;;;;;5038071;28;20049;-52
2024/02/01 00:45:02;;;;;;;63.78;38.92;;;2.00;99.90;;;;;;5040883;28;20032;-49
2024/02/01 00:47:28;;;;;;;71.93;42.75;;;2.00;99.90;;;;;;5043872;28;20036;-51
2024/02/01 00:49:54;;;;;;;65.43;42.65;;;2.00;99.90;;;;;;5041973;28;20049;-52
2024/02/01 00:52:20;;;;;;;64.47;42.03;;;1.90;99.90;;;;;;5043789;28;20044;-51
2024/02/01 00:54:45;;;;;;;67.63;42.83;;;2.10;99.90;;;;;;5041786;28;20098;-51
2024/02/01 00:57:11;;;;;;;60.10;41.00;;;2.20;99.90;;;;;;5044649;28;20029;-51
2024/02/01 00:59:37;;;;;;;63.60;40.25;;;;;;;;;;5039232;28;20037;-49
2024/02/01 01:02:03;;;;;;;59.85;39.17;;;2.80;99.90;;;;;;5045844;28;20108;-49
2024/02/01 01:04:30;;;;;;;59.47;38.03;;;3.10;99.90;;;;;;5055607;28;20041;-51
2024/02/01 01:06:55;;;;;;;49.33;35.03;;;3.30;99.90;;;;;;5046119;28;20052;-49
2024/02/01 01:09:21;;;;;;;52.00;35.38;;;2.60;99.90;;;;;;5042012;28;20053;-52
2024/02/01 01:11:47;;;;;;;53.65;36.47;;;2.80;99.90;;;;;;5024762;28;20102;-51
2024/02/01 01:14:13;;;;;;;57.28;37.50;;;2.30;99.90;;;;;;5043919;28;20037;-49
2024/02/01 01:16:38;;;;;;;52.45;36.08;;;2.30;99.90;;;;;;5044073;28;20032;-52
2024/02/01 01:19:04;;;;;;;54.08;38.90;;;2.70;99.90;;;;;;5039522;28;20029;-50
2024/02/01 01:21:30;;;;;;;59.10;41.28;;;;;;;;;;5042535;28;20465;-52
2024/02/01 01:23:56;;;;;;;54.50;37.55;;;3.10;99.90;;;;;;5033329;28;20168;-52
2024/02/01 01:26:24;;;;;;;46.63;32.78;;;3.40;99.90;;;;;;5039904;28;20117;-52
2024/02/01 01:28:49;;;;;;;48.58;32.63;;;3.20;99.90;;;;;;5038072;28;20160;-50
2024/02/01 01:31:15;;;;;;;45.97;30.60;;;2.50;99.90;;;;;;5038368;28;20461;-51
2024/02/01 01:33:41;;;;;;;42.53;28.42;;;2.30;99.90;;;;;;5044584;28;20049;-51
2024/02/01 01:36:07;;;;;;;49.88;35.17;;;2.00;99.90;;;;;;5044154;28;20092;-51
2024/02/01 01:38:32;;;;;;;50.92;36.03;;;1.50;99.90;;;;;;5044262;28;20029;-52
2024/02/01 01:40:58;;;;;;;49.40;31.48;;;1.20;99.90;;;;;;5043342;28;20036;-50
2024/02/01 01:43:25;;;;;;;47.13;32.70;;;1.00;99.90;;;;;;5043287;28;20029;-53
2024/02/01 01:46:03;;;;;;;45.75;31.73;;;1.00;99.90;;;;;;5045723;28;20049;-51
2024/02/01 01:48:30;;;;;;;42.38;31.08;;;1.00;99.90;;;;;;5045675;28;20104;-51
2024/02/01 01:50:57;;;;;;;43.75;30.83;;;1.00;99.90;;;;;;5040168;28;20029;-52
2024/02/01 01:53:23;;;;;;;44.22;30.88;;;;;;;;;;5047078;28;20111;-49
2024/02/01 01:55:50;;;;;;;44.75;28.98;;;1.80;99.90;;;;;;5049813;28;20040;-50
2024/02/01 01:58:16;;;;;;;43.75;30.75;;;2.00;99.90;;;;;;5047435;28;20075;-51
2024/02/01 02:00:42;;;;;;;43.38;28.00;;;2.20;99.90;;;;;;5046669;28;20404;-49
2024/02/01 02:03:10;;;;;;;43.00;31.20;;;2.50;99.90;;;;;;5050394;28;20132;-50
2024/02/01 02:05:36;;;;;;;44.33;30.10;;;2.70;99.90;;;;;;5050924;28;20038;-49
2024/02/01 02:08:02;;;;;;;44.45;31.35;;;2.70;99.90;;;;;;5047742;28;20049;-51
2024/02/01 02:10:28;;;;;;;45.55;30.75;;;2.80;99.90;;;;;;5041345;28;20395;-53
2024/02/01 02:12:54;;;;;;;50.20;34.58;;;2.80;99.90;;;;;;5038641;28;20075;-51
2024/02/01 02:15:21;;;;;;;49.53;35.55;;;2.70;99.90;;;;;;5047871;28;20029;-53
2024/02/01 02:17:48;;;;;;;50.35;36.15;;;2.80;99.90;;;;;;5044213;28;20060;-52
2024/02/01 02:20:17;;;;;;;56.60;39.63;;;3.00;99.90;;;;;;5042795;28;20112;-51
2024/02/01 02:22:47;;;;;;;78.25;51.95;;;3.00;99.90;;;;;;5039973;28;20393;-52
2024/02/01 02:25:14;;;;;;;62.38;42.85;;;2.90;99.90;;;;;;5018888;28;20128;-50
2024/02/01 02:27:41;;;;;;;57.88;40.97;;;3.10;99.90;;;;;;5026484;28;20184;-49
2024/02/01 02:30:08;;;;;;;57.72;40.22;;;3.10;99.90;;;;;;5022122;28;20041;-52
2024/02/01 02:32:35;;;;;;;62.17;43.22;;;3.10;99.80;;;;;;5021874;28;20032;-50
2024/02/01 02:35:01;;;;;;;59.53;42.70;;;3.10;99.90;;;;;;5029240;28;20489;-49
2024/02/01 02:37:27;;;;;;;62.13;43.10;;;3.20;99.50;;;;;;5021498;28;20056;-51
2024/02/01 02:39:52;;;;;;;60.28;41.72;;;3.10;99.50;;;;;;5019164;28;20029;-52
2024/02/01 02:42:18;;;;;;;61.47;42.85;;;3.00;99.60;;;;;;5008504;28;20060;-51
2024/02/01 02:44:44;;;;;;;60.85;40.42;;;2.90;99.70;;;;;;5020957;28;20043;-49
2024/02/01 02:47:10;;;;;;;53.45;40.05;;;3.00;99.80;;;;;;5024601;28;20030;-51
2024/02/01 02:49:35;;;;;;;50.83;35.97;;;2.90;99.80;;;;;;5025170;28;20088;-52
2024/02/01 02:52:02;;;;;;;44.92;32.25;;;2.90;99.90;;;;;;5022329;28;20521;-48
2024/02/01 02:54:28;;;;;;;43.67;31.67;;;2.50;99.90;;;;;;5024621;28;20576;-51
2024/02/01 02:56:54;;;;;;;40.78;30.40;;;2.20;99.90;;;;;;5023467;28;20124;-51
2024/02/01 02:59:20;;;;;;;44.85;30.73;;;2.00;99.90;;;;;;5025998;28;20026;-52
2024/02/01 03:01:45;;;;;;;41.00;29.90;;;2.10;99.90;;;;;;5030900;28;20029;-51
2024/02/01 03:04:11;;;;;;;42.28;30.30;;;2.30;99.90;;;;;;5047708;28;20083;-49
2024/02/01 03:06:37;;;;;;;37.83;29.08;;;2.50;99.90;;;;;;5047574;28;20040;-50
2024/02/01 03:09:03;;;;;;;39.65;29.63;;;2.30;99.90;;;;;;5046009;28;20063;-49
2024/02/01 03:11:28;;;;;;;40.33;29.05;;;2.80;99.90;;;;;;5048518;28;20057;-51
2024/02/01 03:13:54;;;;;;;42.08;27.80;;;2.80;99.90;;;;;;5050240;28;20090;-51
2024/02/01 03:16:22;;;;;;;38.97;29.05;;;2.90;99.90;;;;;;5047375;28;20037;-52
2024/02/01 03:18:50;;;;;;;36.28;27.02;;;3.00;99.90;;;;;;5042112;28;20047;-52
2024/02/01 03:21:17;;;;;;;41.70;28.98;;;3.10;99.90;;;;;;5042731;28;20036;-48
2024/02/01 03:23:45;;;;;;;38.90;29.25;;;2.90;99.90;;;;;;5038215;28;20426;-50
2024/02/01 03:26:11;;;;;;;114.28;57.78;;;3.00;99.90;;;;;;5026848;28;20033;-50
2024/02/01 03:28:41;;;;;;;80.53;49.97;;;3.10;99.90;;;;;;5040655;28;20028;-52
2024/02/01 03:31:07;;;;;;;69.70;43.45;;;3.10;99.90;;;;;;5046257;28;20421;-52
2024/02/01 03:33:38;;;;;;;65.75;44.80;;;3.00;99.90;;;;;;5048183;28;20068;-53
2024/02/01 03:36:07;;;;;;;70.88;46.13;;;3.00;99.90;;;;;;5038395;28;20073;-49
2024/02/01 03:38:33;;;;;;;94.20;62.00;;;3.00;99.90;;;;;;5042598;28;20041;-51
2024/02/01 03:40:59;;;;;;;113.90;72.65;;;3.00;99.80;;;;;;5032765;28;20045;-52
2024/02/01 03:43:27;;;;;;;91.72;58.10;;;3.00;99.70;;;;;;5047050;28;20112;-51
2024/02/01 03:45:55;;;;;;;104.75;68.03;;;3.00;99.60;;;;;;5040257;28;20059;-52
2024/02/01 03:48:21;;;;;;;94.53;63.75;;;2.90;99.90;;;;;;5050152;28;20120;-49
2024/02/01 03:50:46;;;;;;;92.05;60.45;;;2.80;99.90;;;;;;5048403;28;20056;-50
2024/02/01 03:53:12;;;;;;;76.78;50.65;;;2.60;99.90;;;;;;5038493;28;20045;-52
2024/02/01 03:55:40;;;;;;;64.57;45.72;;;2.30;99.90;;;;;;5044168;28;20542;-51
2024/02/01 03:58:07;;;;;;;68.18;44.78;;;1.90;99.90;;;;;;5044723;28;20033;-53
2024/02/01 04:00:33;;;;;;;63.90;44.13;;;2.00;99.90;;;;;;5042036;28;20427;-49
2024/02/01 04:03:03;;;;;;;57.53;39.85;;;2.20;99.90;;;;;;5044822;28;20045;-53
2024/02/01 04:05:36;;;;;;;58.45;39.60;;;2.40;99.90;;;;;;5041809;28;20475;-51
2024/02/01 04:08:08;;;;;;;58.70;42.20;;;2.50;99.90;;;;;;5038536;28;20465;-53
2024/02/01 04:10:35;;;;;;;63.85;46.60;;;2.60;99.90;;;;;;5060795;28;20037;-49
2024/02/01 04:13:04;;;;;;;66.57;45.00;;;2.70;99.90;;;;;;5044414;28;20028;-51
2024/02/01 04:15:29;;;;;;;108.78;62.80;;;2.50;99.90;;;;;;5042225;28;20098;-52
2024/02/01 04:17:55;;;;;;;95.85;66.28;;;2.10;99.90;;;;;;5041590;28;20029;-52
2024/02/01 04:20:21;;;;;;;76.53;52.75;;;1.80;99.90;;;;;;5024622;28;20033;-53
2024/02/01 04:22:50;;;;;;;61.05;44.67;;;1.60;99.90;;;;;;5042316;28;20427;-49
2024/02/01 04:25:16;;;;;;;55.65;38.90;;;;;;;;;;5040975;28;20428;-51
2024/02/01 04:27:49;;;;;;;62.38;39.70;;;;;;;;;;5043721;28;20133;-50
2024/02/01 04:30:19;;;;;;;52.00;36.58;;;1.20;99.90;;;;;;5038281;28;20065;-53
2024/02/01 04:32:46;;;;;;;51.55;34.58;;;1.30;99.90;;;;;;5025053;28;20504;-49
2024/02/01 04:35:15;;;;;;;41.17;26.50;;;;;;;;;;5028200;28;20040;-52
2024/02/01 04:37:42;;;;;;;51.13;33.63;;;0.10;99.90;;;;;;5045543;28;20028;-50
2024/02/01 04:40:08;;;;;;;54.08;34.28;;;0.10;99.90;;;;;;5049307;28;20078;-52
2024/02/01 04:42:35;;;;;;;51.20;32.55;;;0.20;99.90;;;;;;5064655;28;20068;-52
2024/02/01 04:45:04;;;;;;;50.38;33.30;;;0.10;99.90;;;;;;5042652;28;20073;-49
2024/02/01 04:47:34;;;;;;;57.38;36.92;;;0.00;99.90;;;;;;5037008;28;20041;-49
2024/02/01 04:50:01;;;;;;;57.75;34.95;;;0.10;99.90;;;;;;5046071;28;20090;-51
2024/02/01 04:52:27;;;;;;;47.58;30.55;;;0.10;99.90;;;;;;5044551;28;20135;-53
2024/02/01 04:54:53;;;;;;;48.45;32.88;;;-0.40;99.90;;;;;;5051127;28;20044;-50
2024/02/01 04:57:20;;;;;;;47.30;27.60;;;-0.30;99.90;;;;;;5040883;28;20029;-53
2024/02/01 04:59:47;;;;;;;45.25;31.00;;;-0.40;99.90;;;;;;5042357;28;20042;-50
2024/02/01 05:02:16;;;;;;;38.30;22.75;;;-0.50;99.90;;;;;;5041817;28;20047;-50
2024/02/01 05:04:45;;;;;;;40.10;25.27;;;-0.60;99.90;;;;;;5037961;28;20436;-53
2024/02/01 05:07:11;;;;;;;50.00;32.38;;;-0.60;99.90;;;;;;5042215;28;20033;-50
2024/02/01 05:09:39;;;;;;;54.00;36.47;;;-0.50;99.90;;;;;;5043038;28;20093;-50
2024/02/01 05:12:09;;;;;;;54.35;35.63;;;-0.20;99.90;;;;;;5041241;28;20042;-53
2024/02/01 05:14:36;;;;;;;53.95;35.35;;;0.30;99.90;;;;;;5005820;28;20441;-49
2024/02/01 05:17:02;;;;;;;50.15;34.38;;;0.50;99.90;;;;;;5042294;28;20432;-49
2024/02/01 05:19:28;;;;;;;50.63;36.80;;;0.20;99.90;;;;;;5015199;28;20100;-51
2024/02/01 05:21:54;;;;;;;51.85;35.75;;;;;;;;;;5039241;28;20450;-49
2024/02/01 05:24:24;;;;;;;45.25;32.67;;;0.50;99.90;;;;;;5039588;28;20493;-50
2024/02/01 05:26:51;;;;;;;47.20;33.20;;;0.40;99.90;;;;;;5038621;28;20135;-51
2024/02/01 05:29:22;;;;;;;57.58;36.85;;;0.60;99.90;;;;;;5035710;28;20087;-50
2024/02/01 05:31:53;;;;;;;80.57;47.72;;;0.50;99.90;;;;;;5020376;28;20489;-51
2024/02/01 05:34:20;;;;;;;55.65;33.50;;;0.50;99.90;;;;;;5040455;28;20029;-52
2024/02/01 05:36:47;;;;;;;48.20;34.53;;;0.40;99.90;;;;;;5043403;28;20115;-52
2024/02/01 05:39:26;;;;;;;48.58;32.30;;;0.40;99.90;;;;;;5041939;28;20037;-51
2024/02/01 05:41:52;;;;;;;42.35;29.85;;;0.60;99.90;;;;;;5036383;28;20452;-52
2024/02/01 05:44:22;;;;;;;40.65;29.90;;;0.40;99.90;;;;;;5041470;28;20036;-52
2024/02/01 05:46:48;;;;;;;44.40;30.08;;;0.20;99.90;;;;;;5037394;28;20068;-51
2024/02/01 05:49:18;;;;;;;41.72;28.25;;;;;;;;;;5043055;28;20043;-50
2024/02/01 05:51:53;;;;;;;41.78;29.33;;;0.50;99.90;;;;;;5039786;28;20102;-52
2024/02/01 05:54:20;;;;;;;40.25;28.95;;;0.30;99.90;;;;;;5027193;28;20056;-49
2024/02/01 05:56:47;;;;;;;41.20;28.65;;;0.40;99.90;;;;;;5043415;28;20083;-49
2024/02/01 05:59:14;;;;;;;47.83;33.38;;;;;;;;;;5039930;28;20041;-51
2024/02/01 06:01:46;;;;;;;50.90;36.15;;;;;;;;;;5038780;28;20112;-50
2024/02/01 06:04:13;;;;;;;55.15;40.33;;;0.70;99.90;;;;;;5033619;28;20049;-50
2024/02/01 06:06:43;;;;;;;53.08;38.08;;;1.00;99.90;;;;;;5046458;28;20036;-50
2024/02/01 06:09:12;;;;;;;61.25;42.33;;;1.00;99.90;;;;;;5042379;28;20054;-50
2024/02/01 06:11:38;;;;;;;55.35;39.55;;;0.90;99.90;;;;;;5042677;28;20044;-52
2024/02/01 06:14:04;;;;;;;44.67;31.95;;;1.20;99.90;;;;;;5055336;28;20053;-50
2024/02/01 06:16:30;;;;;;;51.03;38.53;;;1.00;99.90;;;;;;5042751;28;20041;-50
2024/02/01 06:18:56;;;;;;;50.58;36.25;;;1.00;99.90;;;;;;5036458;28;20065;-51
2024/02/01 06:21:21;;;;;;;45.40;31.73;;;0.90;99.90;;;;;;5040223;28;20030;-49
2024/02/01 06:23:47;;;;;;;50.42;33.65;;;0.60;99.90;;;;;;5044888;28;20041;-53
2024/02/01 06:26:27;;;;;;;47.75;32.22;;;;;;;;;;5050012;28;20052;-51
2024/02/01 06:28:53;;;;;;;48.88;37.75;;;;;;;;;;5044556;28;20033;-52
2024/02/01 06:31:19;;;;;;;51.58;39.78;;;0.80;99.90;;;;;;5041786;28;20450;-49
2024/02/01 06:33:50;;;;;;;58.17;41.15;;;;;;;;;;5042849;28;20065;-52
2024/02/01 06:36:19;;;;;;;75.45;48.33;;;1.70;99.90;;;;;;5040963;28;20048;-51
2024/02/01 06:39:08;;;;;;;63.35;44.70;;;2.00;99.90;;;;;;5044319;28;20070;-50
2024/02/01 06:41:47;;;;;;;49.33;36.97;;;3.10;99.90;;;;;;5043263;28;20083;-50
2024/02/01 06:44:22;;;;;;;53.85;37.33;;;4.20;99.90;;;;;;5041741;28;20075;-51
2024/02/01 06:52:24;;;;;;;45.28;34.42;;;8.30;94.90;;;;;;5043671;28;20080;-52
2024/02/01 06:57:47;;;;;;;52.85;39.42;;;;;;;;;;5023686;28;20099;-51
2024/02/01 07:03:02;;;;;;;49.22;36.38;;;11.40;88.70;;;;;;5024534;28;20044;-52
2024/02/01 07:08:13;;;;;;;54.20;39.55;;;;;;;;;;5022737;28;20048;-48
2024/02/01 07:10:43;;;;;;;53.10;41.50;;;14.60;95.20;;;;;;5027045;28;20052;-52
2024/02/01 07:13:21;;;;;;;53.65;41.45;;;15.00;83.10;;;;;;5016391;28;20156;-52
2024/02/01 07:15:54;;;;;;;46.83;37.45;;;;;;;;;;5026779;28;20405;-50
2024/02/01 07:18:30;;;;;;;51.28;40.08;;;;;;;;;;5019235;28;20034;-52
2024/02/01 07:20:58;;;;;;;44.63;37.03;;;16.50;83.20;;;;;;5019039;28;20025;-52
2024/02/01 07:23:34;;;;;;;59.42;46.70;;;16.80;78.80;;;;;;5001626;28;20050;-55
2024/02/01 07:26:16;;;;;;;62.63;49.28;;;17.10;77.50;;;;;;4994448;28;20037;-51
2024/02/01 07:58:53;;;;;;;50.70;41.95;;;;;;;;;;5045387;28;20122;-50
2024/02/01 08:01:21;;;;;;;47.67;41.33;;;;;;;;;;5034282;28;20029;-49
2024/02/01 08:09:18;;;;;;;76.65;58.30;;;;;;;;;;5042717;28;20163;-50
2024/02/01 08:11:43;;;;;;;49.05;38.85;;;19.30;99.20;;;;;;5043676;28;20068;-53
2024/02/01 08:14:13;;;;;;;52.97;41.45;;;19.50;72.50;;;;;;5041548;28;20469;-53
2024/02/01 08:16:39;;;;;;;57.35;46.80;;;;;;;;;;5048042;28;20051;-53
2024/02/01 08:19:09;;;;;;;53.25;45.60;;;19.90;99.20;;;;;;5043535;28;20465;-53
2024/02/01 08:21:37;;;;;;;53.90;43.05;;;18.90;71.00;;;;;;5042049;28;20043;-54
2024/02/01 08:24:06;;;;;;;50.90;42.58;;;16.70;72.10;;;;;;5041382;28;20033;-50
2024/02/01 08:26:39;;;;;;;53.92;43.72;;;15.50;73.70;;;;;;5044069;28;20045;-49
2024/02/01 08:29:10;;;;;;;51.38;40.90;;;;;;;;;;5040278;28;20033;-51
2024/02/01 08:31:36;;;;;;;42.25;35.80;;;;;;;;;;5040775;28;20038;-52
2024/02/01 08:34:15;;;;;;;46.53;38.75;;;13.30;77.40;;;;;;5052928;28;20049;-52
2024/02/01 08:36:43;;;;;;;44.80;35.50;;;14.40;79.70;;;;;;5042462;28;20481;-50
2024/02/01 08:39:10;;;;;;;44.83;37.45;;;13.80;78.70;;;;;;5025492;28;20164;-52
2024/02/01 08:41:37;;;;;;;45.42;38.10;;;13.90;79.70;;;;;;5044735;28;20034;-53
2024/02/01 08:44:08;;;;;;;48.42;39.40;;;14.40;79.80;;;;;;5044021;28;20101;-52
2024/02/01 08:46:35;;;;;;;49.75;41.15;;;15.60;78.30;;;;;;5043810;28;20032;-53
2024/02/01 08:49:02;;;;;;;49.80;39.53;;;16.50;77.60;;;;;;5036515;28;20433;-50
2024/02/01 08:51:27;;;;;;;51.45;41.83;;;15.30;76.80;;;;;;5045126;28;20060;-54
2024/02/01 08:53:54;;;;;;;47.75;40.88;;;16.30;77.90;;;;;;5037186;28;20064;-51
2024/02/01 08:56:23;;;;;;;46.45;41.03;;;;;;;;;;5020444;28;20040;-52
2024/02/01 08:58:49;;;;;;;51.78;42.88;;;18.60;95.90;;;;;;5015727;28;20030;-53
2024/02/01 09:01:26;;;;;;;48.42;42.42;;;;;;;;;;5017660;28;20073;-51
2024/02/01 09:03:53;;;;;;;56.50;44.22;;;;;;;;;;5015163;28;20045;-50
2024/02/01 09:06:19;;;;;;;48.60;39.83;;;20.80;71.60;;;;;;5017107;28;20073;-50
2024/02/01 09:08:45;;;;;;;48.85;42.78;;;20.80;71.10;;;;;;5020463;28;20037;-51
2024/02/01 09:11:12;;;;;;;47.45;42.03;;;21.10;70.90;;;;;;5018764;28;20543;-51
2024/02/01 09:13:45;;;;;;;46.63;41.45;;;;;;;;;;5024525;28;20043;-51
2024/02/01 09:16:13;;;;;;;49.38;43.13;;;21.80;70.10;;;;;;5018035;28;20091;-51
2024/02/01 09:18:39;;;;;;;50.17;42.45;;;21.70;70.00;;;;;;5017343;28;20493;-49
2024/02/01 09:21:05;;;;;;;52.65;44.72;;;21.30;70.20;;;;;;4997188;28;20077;-49
2024/02/01 09:23:31;;;;;;;52.05;42.45;;;21.20;70.40;;;;;;5024235;28;20028;-50
2024/02/01 09:25:56;;;;;;;47.50;41.78;;;21.90;70.00;;;;;;5022032;28;20528;-52
2024/02/01 09:28:22;;;;;;;47.30;42.22;;;;;;;;;;5060444;28;20033;-49
2024/02/01 09:30:51;;;;;;;47.13;41.47;;;21.50;68.30;;;;;;5057562;28;20069;-52
2024/02/01 09:33:22;;;;;;;47.83;41.53;;;22.00;69.00;;;;;;5054871;28;20463;-53
2024/02/01 09:35:48;;;;;;;43.67;38.92;;;;;;;;;;5037290;28;20037;-50
2024/02/01 09:38:15;;;;;;;43.08;38.42;;;22.50;67.40;;;;;;5059540;28;20564;-49
2024/02/01 09:40:42;;;;;;;45.15;39.35;;;22.40;67.70;;;;;;5060577;28;20036;-50
2024/02/01 09:43:17;;;;;;;46.40;39.00;;;22.50;67.70;;;;;;5060466;28;20103;-49
2024/02/01 09:45:44;;;;;;;41.30;34.92;;;;;;;;;;5030965;28;20045;-49
2024/02/01 09:48:18;;;;;;;42.85;38.20;;;22.20;77.70;;;;;;5037805;28;20062;-52
2024/02/01 09:50:55;;;;;;;44.35;38.28;;;22.20;89.30;;;;;;5037480;28;20037;-49
2024/02/01 09:53:25;;;;;;;45.97;40.70;;;22.50;67.40;;;;;;5044228;28;20111;-51
2024/02/01 09:56:00;;;;;;;47.00;39.25;;;22.60;67.40;;;;;;5043545;28;20431;-51
2024/02/01 09:58:28;;;;;;;46.70;41.70;;;22.40;67.40;;;;;;5045376;28;20069;-50
2024/02/01 10:00:54;;;;;;;46.65;41.72;;;;;;;;;;5040134;28;20393;-53
2024/02/01 10:03:22;;;;;;;50.53;45.05;;;;;;;;;;5044796;28;20021;-53
2024/02/01 10:05:49;;;;;;;51.13;45.58;;;;;;;;;;5053080;28;20041;-50
2024/02/01 10:08:16;;;;;;;52.50;47.10;;;;;;;;;;5048421;28;20029;-50
2024/02/01 10:10:43;;;;;;;58.13;51.78;;;;;;;;;;5042953;28;20465;-50
2024/02/01 10:13:18;;;;;;;55.78;49.30;;;22.40;86.10;;;;;;5045722;28;20036;-51
2024/02/01 10:15:45;;;;;;;55.20;49.25;;;;;;;;;;5043218;28;20037;-51
2024/02/01 10:18:21;;;;;;;52.67;46.30;;;;;;;;;;5047967;28;20115;-51
2024/02/01 10:20:51;;;;;;;49.50;44.08;;;;;;;;;;5042980;28;20123;-50
2024/02/01 10:23:19;;;;;;;50.10;43.47;;;22.30;70.90;;;;;;5045928;28;20075;-52
2024/02/01 10:25:47;;;;;;;51.15;45.55;;;;;;;;;;5046782;28;20043;-53
2024/02/01 10:28:22;;;;;;;49.88;44.42;;;20.80;68.50;;;;;;5042690;28;20465;-52
2024/02/01 10:30:49;;;;;;;60.33;47.45;;;20.20;68.90;;;;;;5043358;28;20037;-50
2024/02/01 10:33:19;;;;;;;55.08;46.55;;;20.00;69.80;;;;;;5041243;28;20029;-53
2024/02/01 10:35:51;;;;;;;53.50;47.47;;;20.10;70.30;;;;;;5042962;28;20072;-52
2024/02/01 10:38:21;;;;;;;60.10;49.78;;;20.00;70.90;;;;;;5038712;28;20041;-51
2024/02/01 10:41:01;;;;;;;54.97;47.00;;;20.30;71.30;;;;;;5036630;28;20151;-51
2024/02/01 10:43:30;;;;;;;51.90;46.03;;;20.30;70.80;;;;;;5029480;28;20459;-51
2024/02/01 10:46:06;;;;;;;52.95;47.05;;;20.00;89.30;;;;;;5059719;28;20045;-53
2024/02/01 10:48:52;;;;;;;48.08;42.58;;;20.70;92.50;;;;;;5038030;28;20132;-53
2024/02/01 10:51:19;;;;;;;49.53;42.53;;;20.60;91.20;;;;;;5039817;28;20416;-53
2024/02/01 10:53:46;;;;;;;53.75;44.28;;;20.60;91.20;;;;;;5040998;28;20547;-55
2024/02/01 10:56:16;;;;;;;49.15;42.90;;;;;;;;;;5020811;28;20477;-52
2024/02/01 10:58:47;;;;;;;50.15;43.80;;;20.20;97.80;;;;;;5038194;28;20044;-51
2024/02/01 11:01:18;;;;;;;48.72;42.40;;;20.20;70.80;;;;;;5026080;28;20845;-51
2024/02/01 11:03:51;;;;;;;46.38;41.35;;;20.30;70.80;;;;;;5030351;28;20091;-51
2024/02/01 11:06:19;;;;;;;47.38;40.35;;;20.50;70.30;;;;;;5029139;28;20489;-51
2024/02/01 11:08:46;;;;;;;53.80;35.05;;;20.60;70.00;;;;;;5033222;28;20055;-54
2024/02/01 11:11:18;;;;;;;42.22;36.58;;;20.90;68.90;;;;;;5050902;28;20422;-54
2024/02/01 11:14:06;;;;;;;44.22;36.83;;;20.80;68.70;;;;;;5019100;28;20057;-51
2024/02/01 11:16:40;;;;;;;46.10;35.90;;;20.30;68.60;;;;;;5050851;28;20037;-54
2024/02/01 11:19:12;;;;;;;42.05;36.13;;;;;;;;;;5048874;28;20090;-49
2024/02/01 11:21:49;;;;;;;40.88;35.50;;;;;;;;;;5015885;28;20052;-53
2024/02/01 11:24:19;;;;;;;39.17;34.75;;;20.70;68.20;;;;;;5049768;28;20538;-49
2024/02/01 11:26:54;;;;;;;42.63;38.13;;;20.70;68.50;;;;;;5050757;28;20037;-50
2024/02/01 11:29:24;;;;;;;41.00;36.28;;;20.90;67.90;;;;;;5051113;28;20068;-49
2024/02/01 11:31:57;;;;;;;40.03;34.38;;;20.90;67.60;;;;;;5033787;28;20048;-51
2024/02/01 11:34:24;;;;;;;39.75;35.30;;;20.60;67.40;;;;;;5050362;28;20404;-49
2024/02/01 11:36:51;;;;;;;49.78;44.35;;;;;;;;;;5050335;28;20413;-49
2024/02/01 11:39:17;;;;;;;36.17;32.17;;;21.10;66.90;;;;;;5040734;28;20045;-51
2024/02/01 11:41:46;;;;;;;36.90;32.85;;;20.90;67.00;;;;;;5042848;28;20036;-49
2024/02/01 11:44:15;;;;;;;38.25;32.92;;;21.50;67.10;;;;;;5045844;28;20038;-50
2024/02/01 11:46:50;;;;;;;40.47;33.85;;;21.50;66.70;;;;;;5042488;28;20132;-49
2024/02/01 11:49:20;;;;;;;49.58;36.08;;;21.40;66.60;;;;;;5040442;28;20086;-50
2024/02/01 11:51:52;;;;;;;37.60;31.60;;;21.50;66.90;;;;;;5037883;28;20077;-53
2024/02/01 11:54:18;;;;;;;41.30;30.92;;;21.00;66.00;;;;;;5037475;28;20087;-50
2024/02/01 11:56:44;;;;;;;36.55;31.67;;;21.00;66.60;;;;;;5047513;28;20124;-53
2024/02/01 11:59:11;;;;;;;34.67;30.50;;;20.30;66.40;;;;;;5043030;28;20020;-50
2024/02/01 12:01:37;;;;;;;32.25;28.33;;;;;;;;;;5057393;28;20047;-51
2024/02/01 12:04:06;;;;;;;34.97;30.65;;;20.20;66.70;;;;;;5037306;28;20074;-52
2024/02/01 12:06:32;;;;;;;38.03;33.00;;;20.20;67.10;;;;;;5040169;28;20040;-49
2024/02/01 12:08:59;;;;;;;36.33;32.45;;;20.70;67.60;;;;;;5045829;28;20021;-49
2024/02/01 12:11:29;;;;;;;39.30;34.10;;;20.90;68.20;;;;;;5039788;28;20033;-50
2024/02/01 12:14:00;;;;;;;43.83;33.67;;;20.70;67.30;;;;;;5036533;28;20484;-52
2024/02/01 12:16:30;;;;;;;39.13;34.63;;;20.20;67.30;;;;;;5041640;28;20060;-51
2024/02/01 12:18:58;;;;;;;40.67;33.40;;;;;;;;;;5044829;28;20107;-48
2024/02/01 12:21:27;;;;;;;46.92;36.97;;;19.60;79.20;;;;;;5024838;28;20088;-50
2024/02/01 12:24:17;;;;;;;40.03;32.60;;;;;;;;;;5021504;28;20060;-50
2024/02/01 12:26:43;;;;;;;37.75;32.55;;;19.20;95.00;;;;;;5017341;28;20688;-48
2024/02/01 12:29:09;;;;;;;39.40;33.08;;;18.70;68.80;;;;;;5009458;28;20053;-52
2024/02/01 12:31:35;;;;;;;40.10;32.03;;;18.80;69.20;;;;;;5019257;28;20513;-52
2024/02/01 12:34:01;;;;;;;40.50;33.30;;;;;;;;;;5017376;28;20049;-49
2024/02/01 12:36:28;;;;;;;51.38;36.03;;;19.50;68.80;;;;;;5017425;28;20057;-48
2024/02/01 12:38:53;;;;;;;56.97;38.15;;;19.80;69.10;;;;;;5022594;28;20512;-50
2024/02/01 12:41:20;;;;;;;50.42;32.20;;;19.80;69.30;;;;;;5021530;28;20029;-48
2024/02/01 12:43:51;;;;;;;44.72;30.85;;;19.40;69.00;;;;;;5012156;28;20064;-49
2024/02/01 12:46:21;;;;;;;46.88;37.47;;;19.70;68.70;;;;;;5013408;28;20042;-52
2024/02/01 12:48:47;;;;;;;38.35;29.05;;;19.40;68.20;;;;;;4991146;28;20612;-53
2024/02/01 12:51:12;;;;;;;32.75;28.00;;;19.50;69.00;;;;;;5021014;28;20118;-51
2024/02/01 12:53:38;;;;;;;35.42;27.08;;;18.50;70.70;;;;;;5027685;28;20156;-53
2024/02/01 12:56:05;;;;;;;38.72;28.88;;;17.90;69.00;;;;;;5033867;28;20064;-50
2024/02/01 12:58:39;;;;;;;35.28;29.42;;;18.30;70.40;;;;;;5043260;28;20037;-52
2024/02/01 13:01:06;;;;;;;32.72;27.88;;;18.60;91.90;;;;;;5036636;28;20068;-52
2024/02/01 13:03:32;;;;;;;35.35;29.67;;;18.50;91.80;;;;;;5042959;28;20025;-48
2024/02/01 13:05:58;;;;;;;34.35;27.90;;;18.70;70.60;;;;;;5059411;28;20033;-51
2024/02/01 13:08:23;;;;;;;30.42;26.70;;;18.90;71.10;;;;;;5034711;28;20087;-51
2024/02/01 13:10:50;;;;;;;36.70;29.98;;;;;;;;;;5043438;28;20566;-52
2024/02/01 13:13:16;;;;;;;33.13;27.63;;;17.40;69.70;;;;;;5041287;28;20048;-49
2024/02/01 13:15:47;;;;;;;32.85;27.20;;;17.20;70.10;;;;;;5045014;28;20595;-51
2024/02/01 13:18:14;;;;;;;33.85;27.27;;;16.90;70.20;;;;;;5037546;28;20413;-49
2024/02/01 13:20:41;;;;;;;31.80;27.05;;;16.70;70.70;;;;;;5044178;28;20497;-49
2024/02/01 13:23:09;;;;;;;46.13;28.17;;;17.20;71.30;;;;;;5043536;28;20032;-53
2024/02/01 13:25:39;;;;;;;38.00;29.30;;;17.50;71.20;;;;;;5039431;28;20043;-52
2024/02/01 13:28:08;;;;;;;35.13;29.30;;;17.50;71.00;;;;;;5044920;28;20445;-52
2024/02/01 13:30:34;;;;;;;35.80;30.85;;;17.30;71.00;;;;;;5040126;28;20099;-52
2024/02/01 13:33:04;;;;;;;31.02;26.65;;;17.20;71.50;;;;;;5044636;28;20033;-48
2024/02/01 13:35:32;;;;;;;39.10;30.02;;;17.70;71.20;;;;;;5043402;28;20049;-51
2024/02/01 13:37:57;;;;;;;44.28;30.27;;;18.00;70.40;;;;;;5043724;28;20454;-49
2024/02/01 13:40:23;;;;;;;48.83;31.80;;;18.20;70.30;;;;;;5045487;28;20043;-52
2024/02/01 13:42:52;;;;;;;48.47;31.35;;;18.10;70.10;;;;;;5039012;28;20469;-54